sensor_id;sensor_type;location;lat;lon;timestamp;temperature;humidity
27266;DHT22;14766;51.380;13.762;2023-11-22T00:00:43;6.90;66.30
27266;DHT22;14766;51.380;13.762;2023-11-22T00:03:11;6.90;66.60
27266;DHT22;14766;51.380;13.762;2023-11-22T00:05:38;6.90;67.70
27266;DHT22;14766;51.380;13.762;2023-11-22T00:08:07;6.90;66.70
27266;DHT22;14766;51.380;13.762;2023-11-22T00:10:34;6.90;66.30
27266;DHT22;14766;51.380;13.762;2023-11-22T00:13:01;6.90;66.30
27266;DHT22;14766;51.380;13.762;2023-11-22T00:15:28;6.80;66.00
27266;DHT22;14766;51.380;13.762;2023-11-22T00:17:56;6.80;66.20
27266;DHT22;14766;51.380;13.762;2023-11-22T00:20:24;6.80;66.10
27266;DHT22;14766;51.380;13.762;2023-11-22T00:22:52;6.80;65.90
27266;DHT22;14766;51.380;13.762;2023-11-22T00:25:19;6.80;65.90
27266;DHT22;14766;51.380;13.762;2023-11-22T00:27:46;6.80;65.70
27266;DHT22;14766;51.380;13.762;2023-11-22T00:30:13;6.80;65.90
27266;DHT22;14766;51.380;13.762;2023-11-22T00:32:41;6.80;65.70
27266;DHT22;14766;51.380;13.762;2023-11-22T00:35:09;6.80;65.70
27266;DHT22;14766;51.380;13.762;2023-11-22T00:37:37;6.80;65.90
27266;DHT22;14766;51.380;13.762;2023-11-22T00:40:04;6.80;66.10
27266;DHT22;14766;51.380;13.762;2023-11-22T00:42:38;6.80;66.10
27266;DHT22;14766;51.380;13.762;2023-11-22T00:45:07;6.80;66.20
27266;DHT22;14766;51.380;13.762;2023-11-22T00:47:36;6.80;65.90
27266;DHT22;14766;51.380;13.762;2023-11-22T00:50:04;6.80;65.80
27266;DHT22;14766;51.380;13.762;2023-11-22T00:52:31;6.80;66.10
27266;DHT22;14766;51.380;13.762;2023-11-22T00:54:59;6.80;66.10
27266;DHT22;14766;51.380;13.762;2023-11-22T00:57:26;6.80;66.10
27266;DHT22;14766;51.380;13.762;2023-11-22T00:59:54;6.80;65.70
27266;DHT22;14766;51.380;13.762;2023-11-22T01:02:21;6.80;65.80
27266;DHT22;14766;51.380;13.762;2023-11-22T01:04:48;6.80;66.00
27266;DHT22;14766;51.380;13.762;2023-11-22T01:07:15;6.80;65.90
27266;DHT22;14766;51.380;13.762;2023-11-22T01:09:42;6.80;65.60
27266;DHT22;14766;51.380;13.762;2023-11-22T01:12:10;6.80;65.40
27266;DHT22;14766;51.380;13.762;2023-11-22T01:14:39;6.80;65.50
27266;DHT22;14766;51.380;13.762;2023-11-22T01:17:06;6.80;65.40
27266;DHT22;14766;51.380;13.762;2023-11-22T01:19:33;6.80;65.50
27266;DHT22;14766;51.380;13.762;2023-11-22T01:22:00;6.80;65.20
27266;DHT22;14766;51.380;13.762;2023-11-22T01:24:30;6.80;65.00
27266;DHT22;14766;51.380;13.762;2023-11-22T01:26:57;6.70;64.80
27266;DHT22;14766;51.380;13.762;2023-11-22T01:29:24;6.70;64.90
27266;DHT22;14766;51.380;13.762;2023-11-22T01:31:51;6.70;65.20
27266;DHT22;14766;51.380;13.762;2023-11-22T01:34:19;6.70;65.00
27266;DHT22;14766;51.380;13.762;2023-11-22T01:36:46;6.70;65.30
27266;DHT22;14766;51.380;13.762;2023-11-22T01:39:16;6.70;65.50
27266;DHT22;14766;51.380;13.762;2023-11-22T01:41:46;6.70;65.60
27266;DHT22;14766;51.380;13.762;2023-11-22T01:44:16;6.70;65.20
27266;DHT22;14766;51.380;13.762;2023-11-22T01:46:45;6.70;65.00
27266;DHT22;14766;51.380;13.762;2023-11-22T01:49:16;6.70;64.80
27266;DHT22;14766;51.380;13.762;2023-11-22T01:51:44;6.60;64.60
27266;DHT22;14766;51.380;13.762;2023-11-22T01:54:12;6.60;64.90
27266;DHT22;14766;51.380;13.762;2023-11-22T01:56:39;6.60;65.00
27266;DHT22;14766;51.380;13.762;2023-11-22T01:59:07;6.60;64.80
27266;DHT22;14766;51.380;13.762;2023-11-22T02:01:34;6.60;64.80
27266;DHT22;14766;51.380;13.762;2023-11-22T02:04:02;6.60;65.20
27266;DHT22;14766;51.380;13.762;2023-11-22T02:06:29;6.60;64.90
27266;DHT22;14766;51.380;13.762;2023-11-22T02:08:59;6.60;64.20
27266;DHT22;14766;51.380;13.762;2023-11-22T02:11:26;6.60;64.30
27266;DHT22;14766;51.380;13.762;2023-11-22T02:13:54;6.50;64.30
27266;DHT22;14766;51.380;13.762;2023-11-22T02:16:22;6.50;64.10
27266;DHT22;14766;51.380;13.762;2023-11-22T02:18:49;6.50;64.50
27266;DHT22;14766;51.380;13.762;2023-11-22T02:21:17;6.50;64.60
27266;DHT22;14766;51.380;13.762;2023-11-22T02:23:45;6.50;64.80
27266;DHT22;14766;51.380;13.762;2023-11-22T02:26:13;6.50;64.60
27266;DHT22;14766;51.380;13.762;2023-11-22T02:28:42;6.50;64.70
27266;DHT22;14766;51.380;13.762;2023-11-22T02:31:09;6.50;64.80
27266;DHT22;14766;51.380;13.762;2023-11-22T02:33:36;6.50;65.40
27266;DHT22;14766;51.380;13.762;2023-11-22T02:36:04;6.50;64.50
27266;DHT22;14766;51.380;13.762;2023-11-22T02:38:31;6.50;64.40
27266;DHT22;14766;51.380;13.762;2023-11-22T02:40:58;6.50;64.30
27266;DHT22;14766;51.380;13.762;2023-11-22T02:43:25;6.50;64.00
27266;DHT22;14766;51.380;13.762;2023-11-22T02:45:52;6.50;64.00
27266;DHT22;14766;51.380;13.762;2023-11-22T02:48:20;6.40;63.50
27266;DHT22;14766;51.380;13.762;2023-11-22T02:50:47;6.40;63.60
27266;DHT22;14766;51.380;13.762;2023-11-22T02:53:15;6.40;63.70
27266;DHT22;14766;51.380;13.762;2023-11-22T02:55:44;6.40;63.80
27266;DHT22;14766;51.380;13.762;2023-11-22T02:58:11;6.40;63.50
27266;DHT22;14766;51.380;13.762;2023-11-22T03:00:42;6.40;63.40
27266;DHT22;14766;51.380;13.762;2023-11-22T03:03:10;6.40;63.10
27266;DHT22;14766;51.380;13.762;2023-11-22T03:05:39;6.40;63.40
27266;DHT22;14766;51.380;13.762;2023-11-22T03:08:09;6.40;63.60
27266;DHT22;14766;51.380;13.762;2023-11-22T03:10:37;6.40;63.30
27266;DHT22;14766;51.380;13.762;2023-11-22T03:13:05;6.40;63.50
27266;DHT22;14766;51.380;13.762;2023-11-22T03:15:33;6.40;63.40
27266;DHT22;14766;51.380;13.762;2023-11-22T03:18:00;6.40;63.60
27266;DHT22;14766;51.380;13.762;2023-11-22T03:20:28;6.40;63.60
27266;DHT22;14766;51.380;13.762;2023-11-22T03:22:55;6.40;63.60
27266;DHT22;14766;51.380;13.762;2023-11-22T03:25:22;6.40;63.30
27266;DHT22;14766;51.380;13.762;2023-11-22T03:27:50;6.40;63.20
27266;DHT22;14766;51.380;13.762;2023-11-22T03:30:17;6.40;63.40
27266;DHT22;14766;51.380;13.762;2023-11-22T03:32:44;6.40;63.40
27266;DHT22;14766;51.380;13.762;2023-11-22T03:35:11;6.40;63.10
27266;DHT22;14766;51.380;13.762;2023-11-22T03:37:39;6.40;63.40
27266;DHT22;14766;51.380;13.762;2023-11-22T03:40:06;6.40;63.30
27266;DHT22;14766;51.380;13.762;2023-11-22T03:42:36;6.40;63.20
27266;DHT22;14766;51.380;13.762;2023-11-22T03:45:05;6.40;62.90
27266;DHT22;14766;51.380;13.762;2023-11-22T03:47:32;6.40;63.00
27266;DHT22;14766;51.380;13.762;2023-11-22T03:50:00;6.40;63.30
27266;DHT22;14766;51.380;13.762;2023-11-22T03:52:27;6.40;64.30
27266;DHT22;14766;51.380;13.762;2023-11-22T03:54:54;6.40;63.40
27266;DHT22;14766;51.380;13.762;2023-11-22T03:57:21;6.40;63.30
27266;DHT22;14766;51.380;13.762;2023-11-22T03:59:48;6.40;63.40
27266;DHT22;14766;51.380;13.762;2023-11-22T04:02:15;6.40;63.40
27266;DHT22;14766;51.380;13.762;2023-11-22T04:04:43;6.40;63.10
27266;DHT22;14766;51.380;13.762;2023-11-22T04:07:10;6.40;63.20
27266;DHT22;14766;51.380;13.762;2023-11-22T04:09:37;6.40;63.50
27266;DHT22;14766;51.380;13.762;2023-11-22T04:12:05;6.40;63.60
27266;DHT22;14766;51.380;13.762;2023-11-22T04:14:32;6.40;63.70
27266;DHT22;14766;51.380;13.762;2023-11-22T04:16:59;6.40;63.70
27266;DHT22;14766;51.380;13.762;2023-11-22T04:19:27;6.40;63.70
27266;DHT22;14766;51.380;13.762;2023-11-22T04:21:55;6.40;63.80
27266;DHT22;14766;51.380;13.762;2023-11-22T04:24:22;6.40;63.70
27266;DHT22;14766;51.380;13.762;2023-11-22T04:26:49;6.40;63.90
27266;DHT22;14766;51.380;13.762;2023-11-22T04:29:16;6.40;63.70
27266;DHT22;14766;51.380;13.762;2023-11-22T04:31:44;6.40;63.70
27266;DHT22;14766;51.380;13.762;2023-11-22T04:34:11;6.40;63.90
27266;DHT22;14766;51.380;13.762;2023-11-22T04:36:38;6.40;64.00
27266;DHT22;14766;51.380;13.762;2023-11-22T04:39:06;6.40;63.60
27266;DHT22;14766;51.380;13.762;2023-11-22T04:41:34;6.40;63.50
27266;DHT22;14766;51.380;13.762;2023-11-22T04:44:02;6.30;63.40
27266;DHT22;14766;51.380;13.762;2023-11-22T04:46:29;6.30;63.10
27266;DHT22;14766;51.380;13.762;2023-11-22T04:48:57;6.30;63.40
27266;DHT22;14766;51.380;13.762;2023-11-22T04:51:24;6.30;63.80
27266;DHT22;14766;51.380;13.762;2023-11-22T04:53:51;6.30;63.80
27266;DHT22;14766;51.380;13.762;2023-11-22T04:56:18;6.30;64.10
27266;DHT22;14766;51.380;13.762;2023-11-22T04:58:45;6.30;63.80
27266;DHT22;14766;51.380;13.762;2023-11-22T05:01:12;6.30;63.40
27266;DHT22;14766;51.380;13.762;2023-11-22T05:03:44;6.30;63.30
27266;DHT22;14766;51.380;13.762;2023-11-22T05:06:13;6.20;63.00
27266;DHT22;14766;51.380;13.762;2023-11-22T05:08:40;6.20;63.10
27266;DHT22;14766;51.380;13.762;2023-11-22T05:11:08;6.20;63.20
27266;DHT22;14766;51.380;13.762;2023-11-22T05:13:37;6.20;63.30
27266;DHT22;14766;51.380;13.762;2023-11-22T05:16:04;6.20;63.10
27266;DHT22;14766;51.380;13.762;2023-11-22T05:18:32;6.20;63.00
27266;DHT22;14766;51.380;13.762;2023-11-22T05:20:59;6.20;63.00
27266;DHT22;14766;51.380;13.762;2023-11-22T05:23:26;6.20;62.80
27266;DHT22;14766;51.380;13.762;2023-11-22T05:25:53;6.10;62.20
27266;DHT22;14766;51.380;13.762;2023-11-22T05:28:20;6.10;62.00
27266;DHT22;14766;51.380;13.762;2023-11-22T05:30:47;6.10;61.60
27266;DHT22;14766;51.380;13.762;2023-11-22T05:33:14;6.00;60.80
27266;DHT22;14766;51.380;13.762;2023-11-22T05:35:41;5.90;61.20
27266;DHT22;14766;51.380;13.762;2023-11-22T05:38:09;5.90;61.30
27266;DHT22;14766;51.380;13.762;2023-11-22T05:40:37;5.80;62.50
27266;DHT22;14766;51.380;13.762;2023-11-22T05:43:05;5.80;61.70
27266;DHT22;14766;51.380;13.762;2023-11-22T05:45:38;5.70;61.50
27266;DHT22;14766;51.380;13.762;2023-11-22T05:48:07;5.70;62.00
27266;DHT22;14766;51.380;13.762;2023-11-22T05:50:34;5.70;62.00
27266;DHT22;14766;51.380;13.762;2023-11-22T05:53:02;5.60;62.10
27266;DHT22;14766;51.380;13.762;2023-11-22T05:55:29;5.60;62.20
27266;DHT22;14766;51.380;13.762;2023-11-22T05:57:56;5.60;62.10
27266;DHT22;14766;51.380;13.762;2023-11-22T06:00:23;5.60;62.20
27266;DHT22;14766;51.380;13.762;2023-11-22T06:02:51;5.60;63.10
27266;DHT22;14766;51.380;13.762;2023-11-22T06:05:19;5.60;62.50
27266;DHT22;14766;51.380;13.762;2023-11-22T06:07:47;5.60;62.50
27266;DHT22;14766;51.380;13.762;2023-11-22T06:10:14;5.60;62.60
27266;DHT22;14766;51.380;13.762;2023-11-22T06:12:42;5.60;62.70
27266;DHT22;14766;51.380;13.762;2023-11-22T06:15:11;5.60;62.70
27266;DHT22;14766;51.380;13.762;2023-11-22T06:17:39;5.60;62.90
27266;DHT22;14766;51.380;13.762;2023-11-22T06:20:06;5.60;62.90
27266;DHT22;14766;51.380;13.762;2023-11-22T06:22:34;5.60;62.20
27266;DHT22;14766;51.380;13.762;2023-11-22T06:25:01;5.60;62.00
27266;DHT22;14766;51.380;13.762;2023-11-22T06:27:28;5.60;62.50
27266;DHT22;14766;51.380;13.762;2023-11-22T06:29:56;5.60;62.80
27266;DHT22;14766;51.380;13.762;2023-11-22T06:32:23;5.60;63.00
27266;DHT22;14766;51.380;13.762;2023-11-22T06:34:50;5.60;62.70
27266;DHT22;14766;51.380;13.762;2023-11-22T06:37:18;5.60;62.80
27266;DHT22;14766;51.380;13.762;2023-11-22T06:39:45;5.60;62.80
27266;DHT22;14766;51.380;13.762;2023-11-22T06:42:14;5.60;62.70
27266;DHT22;14766;51.380;13.762;2023-11-22T06:44:41;5.60;62.70
27266;DHT22;14766;51.380;13.762;2023-11-22T06:47:09;5.60;62.70
27266;DHT22;14766;51.380;13.762;2023-11-22T06:49:37;5.60;63.00
27266;DHT22;14766;51.380;13.762;2023-11-22T06:52:04;5.60;62.90
27266;DHT22;14766;51.380;13.762;2023-11-22T06:54:32;5.60;62.90
27266;DHT22;14766;51.380;13.762;2023-11-22T06:56:59;5.60;63.00
27266;DHT22;14766;51.380;13.762;2023-11-22T06:59:26;5.60;63.10
27266;DHT22;14766;51.380;13.762;2023-11-22T07:01:54;5.60;62.80
27266;DHT22;14766;51.380;13.762;2023-11-22T07:04:22;5.60;62.50
27266;DHT22;14766;51.380;13.762;2023-11-22T07:06:53;5.60;62.40
27266;DHT22;14766;51.380;13.762;2023-11-22T07:09:20;5.60;62.60
27266;DHT22;14766;51.380;13.762;2023-11-22T07:11:47;5.60;62.90
27266;DHT22;14766;51.380;13.762;2023-11-22T07:14:14;5.60;62.50
27266;DHT22;14766;51.380;13.762;2023-11-22T07:16:41;5.60;62.70
27266;DHT22;14766;51.380;13.762;2023-11-22T07:19:09;5.60;63.10
27266;DHT22;14766;51.380;13.762;2023-11-22T07:21:36;5.60;62.90
27266;DHT22;14766;51.380;13.762;2023-11-22T07:24:05;5.60;62.50
27266;DHT22;14766;51.380;13.762;2023-11-22T07:26:34;5.60;62.60
27266;DHT22;14766;51.380;13.762;2023-11-22T07:29:01;5.60;63.00
27266;DHT22;14766;51.380;13.762;2023-11-22T07:31:28;5.60;62.90
27266;DHT22;14766;51.380;13.762;2023-11-22T07:33:56;5.60;63.00
27266;DHT22;14766;51.380;13.762;2023-11-22T07:36:24;5.60;63.10
27266;DHT22;14766;51.380;13.762;2023-11-22T07:38:52;5.60;63.20
27266;DHT22;14766;51.380;13.762;2023-11-22T07:41:20;5.70;63.40
27266;DHT22;14766;51.380;13.762;2023-11-22T07:43:48;5.70;62.70
27266;DHT22;14766;51.380;13.762;2023-11-22T07:46:16;5.70;63.10
27266;DHT22;14766;51.380;13.762;2023-11-22T07:48:44;5.70;63.00
27266;DHT22;14766;51.380;13.762;2023-11-22T07:51:14;5.70;62.60
27266;DHT22;14766;51.380;13.762;2023-11-22T07:53:44;5.70;62.40
27266;DHT22;14766;51.380;13.762;2023-11-22T07:56:11;5.70;62.40
27266;DHT22;14766;51.380;13.762;2023-11-22T07:58:41;5.70;62.60
27266;DHT22;14766;51.380;13.762;2023-11-22T08:01:08;5.70;62.60
27266;DHT22;14766;51.380;13.762;2023-11-22T08:03:40;5.70;62.60
27266;DHT22;14766;51.380;13.762;2023-11-22T08:06:15;5.70;62.50
27266;DHT22;14766;51.380;13.762;2023-11-22T08:08:44;5.70;62.80
27266;DHT22;14766;51.380;13.762;2023-11-22T08:11:13;5.80;62.50
27266;DHT22;14766;51.380;13.762;2023-11-22T08:13:48;5.70;62.70
27266;DHT22;14766;51.380;13.762;2023-11-22T08:16:15;5.80;62.00
27266;DHT22;14766;51.380;13.762;2023-11-22T08:18:42;5.80;62.40
27266;DHT22;14766;51.380;13.762;2023-11-22T08:21:11;5.80;62.50
27266;DHT22;14766;51.380;13.762;2023-11-22T08:23:38;5.80;62.10
27266;DHT22;14766;51.380;13.762;2023-11-22T08:26:06;5.80;62.00
27266;DHT22;14766;51.380;13.762;2023-11-22T08:28:35;5.80;61.80
27266;DHT22;14766;51.380;13.762;2023-11-22T08:31:03;5.80;61.90
27266;DHT22;14766;51.380;13.762;2023-11-22T08:33:31;5.80;62.10
27266;DHT22;14766;51.380;13.762;2023-11-22T08:35:58;5.80;61.90
27266;DHT22;14766;51.380;13.762;2023-11-22T08:38:28;5.70;61.70
27266;DHT22;14766;51.380;13.762;2023-11-22T08:40:55;5.80;61.80
27266;DHT22;14766;51.380;13.762;2023-11-22T08:43:23;5.80;62.20
27266;DHT22;14766;51.380;13.762;2023-11-22T08:45:52;5.80;62.60
27266;DHT22;14766;51.380;13.762;2023-11-22T08:48:34;5.80;62.60
27266;DHT22;14766;51.380;13.762;2023-11-22T08:51:06;5.90;62.90
27266;DHT22;14766;51.380;13.762;2023-11-22T08:53:35;5.90;62.90
27266;DHT22;14766;51.380;13.762;2023-11-22T08:56:02;6.00;62.70
27266;DHT22;14766;51.380;13.762;2023-11-22T08:58:33;6.00;62.30
27266;DHT22;14766;51.380;13.762;2023-11-22T09:01:01;6.10;62.20
27266;DHT22;14766;51.380;13.762;2023-11-22T09:03:31;6.10;61.90
27266;DHT22;14766;51.380;13.762;2023-11-22T09:06:00;6.10;61.50
27266;DHT22;14766;51.380;13.762;2023-11-22T09:08:27;6.10;61.40
27266;DHT22;14766;51.380;13.762;2023-11-22T09:10:57;6.10;61.40
27266;DHT22;14766;51.380;13.762;2023-11-22T09:13:24;6.10;61.00
27266;DHT22;14766;51.380;13.762;2023-11-22T09:15:52;6.20;61.80
27266;DHT22;14766;51.380;13.762;2023-11-22T09:18:19;6.20;62.20
27266;DHT22;14766;51.380;13.762;2023-11-22T09:20:46;6.30;62.10
27266;DHT22;14766;51.380;13.762;2023-11-22T09:23:13;6.40;61.30
27266;DHT22;14766;51.380;13.762;2023-11-22T09:25:42;6.50;61.00
27266;DHT22;14766;51.380;13.762;2023-11-22T09:28:09;6.60;60.40
27266;DHT22;14766;51.380;13.762;2023-11-22T09:30:36;6.60;60.30
27266;DHT22;14766;51.380;13.762;2023-11-22T09:33:11;6.60;60.30
27266;DHT22;14766;51.380;13.762;2023-11-22T09:35:43;6.60;59.60
27266;DHT22;14766;51.380;13.762;2023-11-22T09:38:12;6.60;59.40
27266;DHT22;14766;51.380;13.762;2023-11-22T09:40:44;6.60;59.20
27266;DHT22;14766;51.380;13.762;2023-11-22T09:43:13;6.60;58.90
27266;DHT22;14766;51.380;13.762;2023-11-22T09:45:47;6.60;59.10
27266;DHT22;14766;51.380;13.762;2023-11-22T09:48:22;6.60;59.30
27266;DHT22;14766;51.380;13.762;2023-11-22T09:50:54;6.50;59.40
27266;DHT22;14766;51.380;13.762;2023-11-22T09:53:36;6.50;59.50
27266;DHT22;14766;51.380;13.762;2023-11-22T09:56:09;6.50;59.80
27266;DHT22;14766;51.380;13.762;2023-11-22T09:58:42;6.50;59.60
27266;DHT22;14766;51.380;13.762;2023-11-22T10:01:11;6.40;58.60
27266;DHT22;14766;51.380;13.762;2023-11-22T10:03:40;6.40;58.70
27266;DHT22;14766;51.380;13.762;2023-11-22T10:06:08;6.40;59.00
27266;DHT22;14766;51.380;13.762;2023-11-22T10:08:35;6.40;59.40
27266;DHT22;14766;51.380;13.762;2023-11-22T10:11:05;6.40;59.50
27266;DHT22;14766;51.380;13.762;2023-11-22T10:13:34;6.40;59.20
27266;DHT22;14766;51.380;13.762;2023-11-22T10:16:14;6.30;59.30
27266;DHT22;14766;51.380;13.762;2023-11-22T10:18:47;6.30;59.70
27266;DHT22;14766;51.380;13.762;2023-11-22T10:21:33;6.30;59.60
27266;DHT22;14766;51.380;13.762;2023-11-22T10:24:02;6.30;59.10
27266;DHT22;14766;51.380;13.762;2023-11-22T10:26:31;6.30;59.30
27266;DHT22;14766;51.380;13.762;2023-11-22T10:28:58;6.20;59.50
27266;DHT22;14766;51.380;13.762;2023-11-22T10:31:26;6.30;59.80
27266;DHT22;14766;51.380;13.762;2023-11-22T10:33:54;6.30;59.90
27266;DHT22;14766;51.380;13.762;2023-11-22T10:36:24;6.20;60.10
27266;DHT22;14766;51.380;13.762;2023-11-22T10:38:51;6.30;59.00
27266;DHT22;14766;51.380;13.762;2023-11-22T10:41:20;6.30;58.90
27266;DHT22;14766;51.380;13.762;2023-11-22T10:43:54;6.30;58.80
27266;DHT22;14766;51.380;13.762;2023-11-22T10:46:30;6.30;58.90
27266;DHT22;14766;51.380;13.762;2023-11-22T10:48:58;6.30;59.00
27266;DHT22;14766;51.380;13.762;2023-11-22T10:51:33;6.30;58.70
27266;DHT22;14766;51.380;13.762;2023-11-22T10:54:01;6.30;58.70
27266;DHT22;14766;51.380;13.762;2023-11-22T10:56:40;6.40;59.00
27266;DHT22;14766;51.380;13.762;2023-11-22T10:59:14;6.40;58.90
27266;DHT22;14766;51.380;13.762;2023-11-22T11:01:44;6.50;59.20
27266;DHT22;14766;51.380;13.762;2023-11-22T11:04:33;6.50;59.40
27266;DHT22;14766;51.380;13.762;2023-11-22T11:07:03;6.60;59.60
27266;DHT22;14766;51.380;13.762;2023-11-22T11:09:33;6.60;59.60
27266;DHT22;14766;51.380;13.762;2023-11-22T11:12:02;6.70;60.40
27266;DHT22;14766;51.380;13.762;2023-11-22T11:14:35;6.90;61.00
27266;DHT22;14766;51.380;13.762;2023-11-22T11:17:03;7.10;60.10
27266;DHT22;14766;51.380;13.762;2023-11-22T11:19:31;7.20;59.00
27266;DHT22;14766;51.380;13.762;2023-11-22T11:22:00;7.30;58.70
27266;DHT22;14766;51.380;13.762;2023-11-22T11:24:27;7.30;58.30
27266;DHT22;14766;51.380;13.762;2023-11-22T11:26:54;7.30;57.70
27266;DHT22;14766;51.380;13.762;2023-11-22T11:29:35;7.40;56.80
27266;DHT22;14766;51.380;13.762;2023-11-22T11:32:03;7.40;57.30
27266;DHT22;14766;51.380;13.762;2023-11-22T11:34:30;7.30;57.00
27266;DHT22;14766;51.380;13.762;2023-11-22T11:36:59;7.30;57.30
27266;DHT22;14766;51.380;13.762;2023-11-22T11:39:27;7.30;57.30
27266;DHT22;14766;51.380;13.762;2023-11-22T11:42:11;7.30;57.00
27266;DHT22;14766;51.380;13.762;2023-11-22T11:45:10;7.20;57.10
27266;DHT22;14766;51.380;13.762;2023-11-22T11:47:38;7.20;57.30
27266;DHT22;14766;51.380;13.762;2023-11-22T11:50:06;7.20;57.60
27266;DHT22;14766;51.380;13.762;2023-11-22T11:52:37;7.10;57.60
27266;DHT22;14766;51.380;13.762;2023-11-22T11:55:05;7.20;57.60
27266;DHT22;14766;51.380;13.762;2023-11-22T11:57:33;7.10;57.50
27266;DHT22;14766;51.380;13.762;2023-11-22T12:00:01;7.10;57.50
27266;DHT22;14766;51.380;13.762;2023-11-22T12:02:37;7.10;57.70
27266;DHT22;14766;51.380;13.762;2023-11-22T12:05:04;7.10;57.70
27266;DHT22;14766;51.380;13.762;2023-11-22T12:07:36;7.10;57.90
27266;DHT22;14766;51.380;13.762;2023-11-22T12:10:05;7.20;57.70
27266;DHT22;14766;51.380;13.762;2023-11-22T12:12:35;7.20;57.40
27266;DHT22;14766;51.380;13.762;2023-11-22T12:15:02;7.20;57.40
27266;DHT22;14766;51.380;13.762;2023-11-22T12:17:29;7.20;57.20
27266;DHT22;14766;51.380;13.762;2023-11-22T12:20:29;7.20;57.20
27266;DHT22;14766;51.380;13.762;2023-11-22T12:22:58;7.10;57.50
27266;DHT22;14766;51.380;13.762;2023-11-22T12:25:27;7.10;57.50
27266;DHT22;14766;51.380;13.762;2023-11-22T12:27:55;7.10;57.40
27266;DHT22;14766;51.380;13.762;2023-11-22T12:30:28;7.10;57.40
27266;DHT22;14766;51.380;13.762;2023-11-22T12:32:57;7.10;56.70
27266;DHT22;14766;51.380;13.762;2023-11-22T12:35:24;7.00;55.90
27266;DHT22;14766;51.380;13.762;2023-11-22T12:37:52;7.00;56.50
27266;DHT22;14766;51.380;13.762;2023-11-22T12:40:21;7.00;57.50
27266;DHT22;14766;51.380;13.762;2023-11-22T12:42:50;6.90;56.60
27266;DHT22;14766;51.380;13.762;2023-11-22T12:45:21;6.90;56.20
27266;DHT22;14766;51.380;13.762;2023-11-22T12:47:51;6.80;56.40
27266;DHT22;14766;51.380;13.762;2023-11-22T12:50:32;6.90;56.70
27266;DHT22;14766;51.380;13.762;2023-11-22T12:53:07;6.80;57.10
27266;DHT22;14766;51.380;13.762;2023-11-22T12:55:35;6.80;57.00
27266;DHT22;14766;51.380;13.762;2023-11-22T12:58:04;6.80;57.00
27266;DHT22;14766;51.380;13.762;2023-11-22T13:00:31;6.80;57.00
27266;DHT22;14766;51.380;13.762;2023-11-22T13:03:01;6.80;56.30
27266;DHT22;14766;51.380;13.762;2023-11-22T13:05:54;6.70;56.20
27266;DHT22;14766;51.380;13.762;2023-11-22T13:08:23;6.70;56.40
27266;DHT22;14766;51.380;13.762;2023-11-22T13:10:56;6.60;56.70
27266;DHT22;14766;51.380;13.762;2023-11-22T13:13:27;6.60;56.60
27266;DHT22;14766;51.380;13.762;2023-11-22T13:16:00;6.60;57.00
27266;DHT22;14766;51.380;13.762;2023-11-22T13:18:29;6.60;57.30
27266;DHT22;14766;51.380;13.762;2023-11-22T13:20:57;6.60;57.00
27266;DHT22;14766;51.380;13.762;2023-11-22T13:23:25;6.50;57.00
27266;DHT22;14766;51.380;13.762;2023-11-22T13:25:52;6.60;57.60
27266;DHT22;14766;51.380;13.762;2023-11-22T13:28:20;6.60;58.10
27266;DHT22;14766;51.380;13.762;2023-11-22T13:30:47;6.60;58.40
27266;DHT22;14766;51.380;13.762;2023-11-22T13:33:16;6.60;58.40
27266;DHT22;14766;51.380;13.762;2023-11-22T13:35:43;6.60;58.10
27266;DHT22;14766;51.380;13.762;2023-11-22T13:38:11;6.70;58.10
27266;DHT22;14766;51.380;13.762;2023-11-22T13:40:39;6.70;58.60
27266;DHT22;14766;51.380;13.762;2023-11-22T13:43:07;6.70;58.00
27266;DHT22;14766;51.380;13.762;2023-11-22T13:45:35;6.70;58.10
27266;DHT22;14766;51.380;13.762;2023-11-22T13:48:05;6.80;57.70
27266;DHT22;14766;51.380;13.762;2023-11-22T13:50:34;6.80;57.60
27266;DHT22;14766;51.380;13.762;2023-11-22T13:53:02;6.80;57.70
27266;DHT22;14766;51.380;13.762;2023-11-22T13:55:31;6.80;58.40
27266;DHT22;14766;51.380;13.762;2023-11-22T13:58:00;6.80;57.10
27266;DHT22;14766;51.380;13.762;2023-11-22T14:00:29;6.80;57.00
27266;DHT22;14766;51.380;13.762;2023-11-22T14:03:09;6.80;57.00
27266;DHT22;14766;51.380;13.762;2023-11-22T14:06:02;6.70;56.10
27266;DHT22;14766;51.380;13.762;2023-11-22T14:09:04;6.70;55.30
27266;DHT22;14766;51.380;13.762;2023-11-22T14:11:45;6.70;55.40
27266;DHT22;14766;51.380;13.762;2023-11-22T14:14:41;6.60;55.80
27266;DHT22;14766;51.380;13.762;2023-11-22T14:17:52;6.60;55.40
27266;DHT22;14766;51.380;13.762;2023-11-22T14:20:31;6.50;55.40
27266;DHT22;14766;51.380;13.762;2023-11-22T14:23:47;6.50;55.80
27266;DHT22;14766;51.380;13.762;2023-11-22T14:26:26;6.40;56.00
27266;DHT22;14766;51.380;13.762;2023-11-22T14:29:11;6.40;55.20
27266;DHT22;14766;51.380;13.762;2023-11-22T14:31:50;6.40;55.80
27266;DHT22;14766;51.380;13.762;2023-11-22T14:35:06;6.30;56.00
27266;DHT22;14766;51.380;13.762;2023-11-22T14:37:59;6.30;56.00
27266;DHT22;14766;51.380;13.762;2023-11-22T14:40:48;6.20;56.20
27266;DHT22;14766;51.380;13.762;2023-11-22T14:43:38;6.20;56.40
27266;DHT22;14766;51.380;13.762;2023-11-22T14:50:10;6.10;56.20
27266;DHT22;14766;51.380;13.762;2023-11-22T14:53:36;6.10;56.60
27266;DHT22;14766;51.380;13.762;2023-11-22T14:56:36;6.10;56.70
27266;DHT22;14766;51.380;13.762;2023-11-22T14:59:28;6.00;56.70
27266;DHT22;14766;51.380;13.762;2023-11-22T15:02:47;6.00;56.80
27266;DHT22;14766;51.380;13.762;2023-11-22T15:05:44;6.00;57.20
27266;DHT22;14766;51.380;13.762;2023-11-22T15:09:14;6.00;57.30
27266;DHT22;14766;51.380;13.762;2023-11-22T15:12:32;6.00;57.30
27266;DHT22;14766;51.380;13.762;2023-11-22T15:18:22;6.00;57.70
27266;DHT22;14766;51.380;13.762;2023-11-22T15:21:06;6.00;57.90
27266;DHT22;14766;51.380;13.762;2023-11-22T15:24:08;6.00;58.20
27266;DHT22;14766;51.380;13.762;2023-11-22T15:27:28;6.00;58.20
27266;DHT22;14766;51.380;13.762;2023-11-22T15:30:08;6.00;58.30
27266;DHT22;14766;51.380;13.762;2023-11-22T15:33:22;6.00;58.40
27266;DHT22;14766;51.380;13.762;2023-11-22T15:37:02;6.00;58.60
27266;DHT22;14766;51.380;13.762;2023-11-22T15:39:50;6.00;58.70
27266;DHT22;14766;51.380;13.762;2023-11-22T15:46:18;6.00;58.80
27266;DHT22;14766;51.380;13.762;2023-11-22T15:52:19;6.00;59.00
27266;DHT22;14766;51.380;13.762;2023-11-22T15:55:29;6.00;59.10
27266;DHT22;14766;51.380;13.762;2023-11-22T15:58:31;6.00;59.00
27266;DHT22;14766;51.380;13.762;2023-11-22T16:01:36;6.00;58.90
27266;DHT22;14766;51.380;13.762;2023-11-22T16:11:17;6.00;59.00
27266;DHT22;14766;51.380;13.762;2023-11-22T16:14:47;6.00;58.80
27266;DHT22;14766;51.380;13.762;2023-11-22T16:17:41;5.90;58.30
27266;DHT22;14766;51.380;13.762;2023-11-22T16:20:33;5.90;58.00